ADDS METAR Data INFO
IDs: Format: Raw Decoded Include TAF

Data at: 2112 UTC 22 Oct 2017

PAKF 222101Z AUTO 00000KT 10SM CLR 03/M06 A2956 RMK AO2 SLP105 T00331061 53008 $
PAKF 222001Z AUTO 20005KT 10SM BKN080 BKN090 BKN110 03/M06 A2955 RMK AO2 SLP103 T00281056 $
PAKF 221901Z AUTO 00000KT 10SM CLR 01/M03 A2954 RMK AO2 SLP099 T00111033 FZRANO $
PAKF 221801Z AUTO 24007KT 10SM CLR M02/M05 A2953 RMK AO2 SLP096 60000 T10171050 11006 21033 53007 FZRANO $
PAKF 221701Z AUTO 25006KT 10SM CLR M02/M07 A2953 RMK AO2 SLP095 T10221067 FZRANO $
PAKF 221601Z AUTO 23005KT 10SM CLR M01/M06 A2952 RMK AO2 SLP093 T10111056 FZRANO $
PAKF 221501Z AUTO 00000KT 10SM OVC100 M02/M04 A2951 RMK AO2 SNB1430E1442 SLP089 P0000 60000 T10171044 51002 FZRANO $
PAKF 221401Z AUTO 00000KT 10SM CLR M03/M06 A2951 RMK AO2 SLP089 T10281056 FZRANO $
PAKF 221301Z AUTO VRB04KT 10SM BKN080 M02/M06 A2951 RMK AO2 SLP088 T10221056 FZRANO $
PAKF 221201Z AUTO 22008KT 10SM SCT048 M03/M06 A2951 RMK AO2 SLP088 60000 70016 T10331056 11006 21033 51000 FZRANO $
PAKF 221101Z AUTO 25005KT 10SM CLR M02/M05 A2950 RMK AO2 SLP086 T10221050 FZRANO $
PAKF 221001Z AUTO 00000KT 10SM CLR M02/M04 A2950 RMK AO2 RAB0908090709080907E0908090709080915UPB0908090709080955E090809070 9080957B0910E0912SNB0908090709080915E0908090709080955B09080907090 80957E0910 $
PAKF 220930Z AUTO 00000KT 10SM SCT027 SCT035 M01/M03 A2951 RMK AO2 RAB08070807E08070815UPB08070855E08070857B10E12SNB08070815E0807085 5B08070857E10 P0000 410061011 FZRANO $
PAKF 220901Z AUTO 25005KT 7SM -SN FEW009 BKN029 OVC037 M01/M02 A2950 RMK AO2 RAB08070807E08070815UPB08070855E08070857SNB08070815E08070855B0807 0857 P0000 410061006 FZRANO $
PAKF 220855Z AUTO 26004KT 3SM -SN BR SCT009 SCT027 OVC037 M01/M02 A2951 RMK AO2 RAB0707E0715UPB0755E0757SNB0715E0755B0757 P0000 400331006 FZRANO $
PAKF 220851Z AUTO 29006KT 2SM -SN BR SCT009 BKN026 OVC037 M01/M02 A2951 RMK AO2 RAB0707E0715UPB0755E0757SNB0715E0755B0757 P0000 FZRANO $
PAKF 220829Z AUTO 00000KT 4SM -SN BR BKN009 OVC015 M01/M02 A2952 RMK AO2 RAB0707E0715UPB0755E0757SNB0715E0755B0757 CIG 007V011 P0000 FZRANO $
PAKF 220821Z AUTO 00000KT 1 1/4SM -SN BR SCT009 BKN013 OVC037 M01/M02 A2952 RMK AO2 VIS 3/4V2 RAB0707E0715UPB0755E0757SNB0715E0755B0757 P0000 FZRANO $
PAKF 220811Z AUTO 34003KT 1 3/4SM -SN BR SCT016 BKN024 OVC038 M01/M02 A2952 RMK AO2 VIS 1V5 RAB0707E0715UPB0755E0757SNB0715E0755B0757 P0000 FZRANO $
PAKF 220801Z AUTO 31003KT 5SM -SN BR SCT024 BKN031 OVC038 M01/M02 A2952 RMK AO2 RAB0707E0715UPB0755E0757SNB0715E0755B0757 P0000 FZRANO $
PAKF 220750Z AUTO VRB04KT 9SM -SN BKN028 BKN110 M01/M02 A2951 RMK AO2 RAB07E15SNB15 P0000 FZRANO $
PAKF 220701Z AUTO 28010G17KT 10SM SCT042 SCT049 02/M05 A2950 RMK AO2 RAB0609E0617UPB0626E0630SNB0617E0626 SLP083 P0000 T00171050 FZRANO $
PAKF 220601Z AUTO 29008G20KT 10SM CLR 02/M06 A2949 RMK AO2 RAB0504E0521B0545E0550SNB0521E0545 SLP080 P0000 60000 T00171061 10022 20000 55000 FZRANO $
PAKF 220501Z AUTO 26011KT 9SM CLR 02/M05 A2947 RMK AO2 RAB0408E0414B0432E0448SNB0414E0432B0448E01 SLP074 P0000 T00171050 FZRANO $
PAKF 220401Z AUTO 25009KT 10SM BKN033 01/M04 A2947 RMK AO2 RAE03020308B03020342E03020350B0310E0312B0332E0353UPB03020350E0302 0355B0353E0359SNB03020308E03020342B0312E0332 SLP074 P0000 T00111039 FZRANO $
PAKF 220317Z AUTO 09003KT 5SM -SN SCT012 OVC035 02/M02 A2947 RMK AO2 RAE0208B0242E0250B10E12UPB0250E0255SNB0208E0242B12 P0000 FZRANO $
PAKF 220309Z AUTO 12006KT 10SM FEW006 BKN011 OVC035 02/M04 A2947 RMK AO2 RAE0208B0242E0250UPB0250E0255SNB0208E0242 P0000 FZRANO $
PAKF 220301Z AUTO 18003KT 10SM BKN011 BKN024 01/M04 A2947 RMK AO2 RAE0208B0242E0250UPB0250E0255SNB0208E0242 P0000 FZRANO $
PAKF 220252Z AUTO 08004KT 10SM UP FEW013 SCT020 BKN027 01/M04 A2947 RMK AO2 RAE08B42E50UPB50SNB08E42 P0000 FZRANO $
PAKF 220231Z AUTO 27009G21KT 3SM -SN SCT018 01/M04 A2946 RMK AO2 RAE08SNB08 P0000 FZRANO $
PAKF 220226Z AUTO 27014G21KT 1 3/4SM -SN SCT020 01/M03 A2946 RMK AO2 VIS 3/4V5 RAE08SNB08 P0000 FZRANO $
PAKF 220201Z AUTO 28017G24KT 10SM -RA CLR 02/M05 A2944 RMK AO2 PK WND 29030/0121 RAB01 SLP065 P0000 T00221050 FZRANO $
PAKF 220101Z AUTO 28019G30KT 10SM CLR 02/M04 A2944 RMK AO2 PK WND 29031/0045 RAB0021E0044 SLP065 P0000 T00221039 FZRANO $
PAKF 220001Z AUTO 28019G29KT 10SM CLR 03/M06 A2945 RMK AO2 PK WND 28032/2335 RAE2314UPB2314E2325 SLP068 P0000 60001 T00281061 10033 20011 58001 $
PAKF 212301Z AUTO 31019G25KT 10SM -RA FEW041 03/M06 A2945 RMK AO2 PK WND 27031/2231 UPE2202RAB2239 SLP068 P0000 T00331056 $
PAKF 212201Z AUTO 28016G21KT 10SM UP FEW049 SCT060 SCT100 03/M05 A2946 RMK AO2 RAB2105E2115B2137E2150UPB2115E2128B2150 SLP073 P0001 T00281050 $
PAKF 212101Z AUTO 26007G18KT 10SM FEW055 SCT085 BKN100 02/M04 A2946 RMK AO2 RAE2048UPB2048E00 SLP072 P0000 60006 T00221039 53010 FZRANO $
PAKF 212001Z AUTO 29009G19KT 240V320 10SM -RA FEW041 SCT060 03/M06 A2945 RMK AO2 RAB1908E1939B1957UPB1917E1924 SLP069 P0000 T00281061 $
PAKF 211901Z AUTO 29010G18KT 10SM FEW038 SCT050 02/M06 A2944 RMK AO2 PK WND 34026/1812 UPE1817B1848E1851RAB1817E1823SNB1823E1848 SLP065 P0000 T00221056 FZRANO $
PAKF 211801Z AUTO 32010G16KT 280V350 10SM UP CLR 01/M06 A2943 RMK AO2 RAE1702UPB1722E1726B01SNB1702E1722 SLP061 P0001 60012 T00111056 10017 20000 53005 FZRANO $
PAKF 211722Z AUTO 32011G19KT 9SM UP SCT023 BKN043 OVC050 01/M03 A2942 RMK AO2 RAE02UPB22SNB02E22 P0001 FZRANO $
PAKF 211701Z AUTO 31010G16KT 5SM -RA BKN023 OVC032 01/M02 A2942 RMK AO2 PK WND 32029/1617 RAB00SNE00 SLP058 P0003 T00111022 FZRANO $
PAKF 211648Z AUTO 34010G17KT 7SM -SN FEW011 BKN025 OVC033 01/M02 A2942 RMK AO2 PK WND 32029/1617 P0002 FZRANO $
PAKF 211613Z AUTO 29014G19KT 5SM -SN FEW011 BKN035 OVC060 01/M03 A2941 RMK AO2 PK WND 29026/1558 RAE1516B1534E1538UPB1516E1529SNB1538 SLP052 P0002 T00111033 FZRANO $
PAKF 211607Z AUTO 30010G26KT 3SM -SN FEW013 BKN035 OVC060 01/M03 A2941 RMK AO2 PK WND 29026/1558 RAE1516B1534E1538UPB1516E1529SNB1538 P0001 FZRANO $
PAKF 211601Z AUTO 29011G26KT 2 1/2SM -SN FEW013 BKN035 OVC060 01/M02 A2941 RMK AO2 PK WND 29026/1558 RAE1516B1534E1538UPB1516E1529SNB1538 P0000 FZRANO $
PAKF 211514Z AUTO 30012G24KT 10SM -RA FEW024 BKN042 01/M02 A2940 RMK AO2 P0000 FZRANO $
PAKF 211501Z AUTO 31015G24KT 280V350 10SM -RA SCT013 BKN023 OVC038 01/M03 A2940 RMK AO2 PK WND 27034/1421 RAE14131419B1448SNB14131419E1443 SLP050 P0003 60009 T00111028 53005 FZRANO $
PAKF 211456Z AUTO 30018G24KT 10SM -RA SCT013 BKN021 OVC038 01/M03 A2939 RMK AO2 PK WND 27034/1421 RAE1319B48SNB1319E43 P0003 FZRANO $
PAKF 211446Z AUTO 32017G27KT 9SM SCT007 BKN013 OVC019 01/M03 A2939 RMK AO2 PK WND 27034/1421 RAE1319SNB1319E43 P0003 FZRANO $
PAKF 211432Z AUTO 31018G25KT 5SM -SN BKN007 OVC011 01/M03 A2937 RMK AO2 PK WND 27034/1421 RAE1319SNB1319 CIG 005V010 P0003 FZRANO $
PAKF 211423Z AUTO 29017G34KT 1SM -SN BR BKN007 OVC012 00/M02 A2938 RMK AO2 PK WND 27034/1421 RAE1319SNB1319 P0003 FZRANO $
PAKF 211416Z AUTO 30014G27KT 2 1/2SM -SN BR BKN007 BKN014 OVC019 01/M02 A2938 RMK AO2 PK WND 30032/1352 RAE1319SNB1319 CIG 005V009 P0003 FZRANO $
PAKF 211409Z AUTO 31019G28KT 2 1/2SM -SN BR SCT007 OVC017 01/M02 A2938 RMK AO2 PK WND 30032/1352 VIS 1 3/4V5 RAE1319SNB1319 P0003 FZRANO $
PAKF 211401Z AUTO 31017G32KT 1SM -SN BR SCT014 BKN019 OVC025 01/M02 A2938 RMK AO2 PK WND 30032/1352 RAE1319SNB1319 P0003 FZRANO $
PAKF 211354Z AUTO 29016G32KT 260V320 3/4SM -SN BR FEW010 BKN021 OVC027 01/M01 A2938 RMK AO2 PK WND 30032/1352 RAE19SNB19 P0002 FZRANO $
PAKF 211348Z AUTO 30016G27KT 1 3/4SM -SN FEW014 BKN021 OVC036 02/M02 A2938 RMK AO2 PK WND 28028/1312 VIS 3/4V4 RAE19SNB19 P0002 FZRANO $
PAKF 211342Z AUTO 30012G23KT 3SM -SN FEW012 BKN023 OVC034 02/M03 A2937 RMK AO2 PK WND 28028/1312 RAE19SNB19 P0001 FZRANO $
PAKF 211301Z AUTO 31014G29KT 10SM -RA FEW016 BKN030 OVC038 02/M03 A2935 RMK AO2 PK WND 31030/1251 RAB1206E1223B1256SNE1206B1223E1256 SLP033 P0000 T00221033 FZRANO $
PAKF 211251Z AUTO 31018G30KT 9SM -SN FEW022 SCT028 OVC037 02/M03 A2935 RMK AO2 PK WND 31030/1251 RAB06E23SNE06B23 P0000 FZRANO $
PAKF 211235Z AUTO 29014G26KT 8SM -SN SCT010 BKN024 OVC036 02/M03 A2936 RMK AO2 PK WND 30030/1202 RAB06E23SNE06B23 P0000 FZRANO $
PAKF 211220Z AUTO 30018G29KT 8SM RA BKN010 BKN016 OVC026 02/M03 A2935 RMK AO2 PK WND 30030/1202 RAB06SNE06 P0000 FZRANO $
PAKF 211201Z AUTO 31019G28KT 9SM -SN BKN017 BKN023 OVC029 02/M02 A2935 RMK AO2 PK WND 32028/1157 SLP035 P0003 60007 70026 T00171017 10028 20011 53016 FZRANO $
PAKF 211153Z AUTO 31021G27KT 7SM -SN SCT012 BKN020 OVC028 02/M02 A2935 RMK AO2 PK WND 31027/1152 P0003 FZRANO $
PAKF 211144Z AUTO 29017G27KT 2SM -SN SCT014 BKN020 OVC029 02/M01 A2936 RMK AO2 PK WND 30027/1143 P0003 FZRANO $
PAKF 211142Z AUTO 31018G25KT 1 3/4SM -SN BKN014 BKN020 OVC029 02/M01 A2936 RMK AO2 P0003 FZRANO $
PAKF 211134Z AUTO 30013G24KT 2SM -SN BKN014 OVC029 02/M01 A2935 RMK AO2 VIS 1 1/2V4 P0002 FZRANO $
PAKF 211118Z AUTO 29011G16KT 3SM -SN BR SCT008 OVC014 01/M01 A2935 RMK AO2 P0001 FZRANO $
PAKF 211108Z AUTO 32014G19KT 2SM -SN BR BKN008 OVC014 02/M01 A2935 RMK AO2 VIS 1 1/2V3 P0001 FZRANO $
PAKF 211101Z AUTO 32014G19KT 3SM -SN BR BKN008 BKN021 02/M01 A2935 RMK AO2 PK WND 30030/1007 RAB1012E1019 SLP032 P0002 T00171006 FZRANO $
PAKF 211053Z AUTO 29012G18KT 3SM -SN BR BKN008 BKN021 BKN032 02/M01 A2934 RMK AO2 PK WND 30030/1007 RAB12E19 CIG 006V009 P0001 FZRANO $
PAKF 211045Z AUTO 29014G22KT 2 1/2SM -SN FEW006 SCT021 BKN032 02/M01 A2934 RMK AO2 PK WND 30030/1007 VIS 1 3/4V4 RAB12E19 P0001 FZRANO $
PAKF 211023Z AUTO 30016G27KT 1 3/4SM -SN BR CLR 02/M01 A2934 RMK AO2 PK WND 30030/1007 VIS 1V5 RAB12E19 PRESRR P0000 FZRANO $
PAKF 211001Z AUTO 32019G22KT 10SM -SN SCT012 02/M02 A2931 RMK AO2 RAB0902E0906B0951E0959SNB0906E0939B0959 SLP020 P0000 T00221017 FZRANO $
PAKF 210958Z AUTO 29016G22KT 10SM -RA SCT012 SCT021 02/M01 A2931 RMK AO2 RAB02E06B51SNB06E39 P0000 FZRANO $
PAKF 210954Z AUTO 30016G23KT 10SM -RA FEW006 BKN012 BKN023 02/M01 A2932 RMK AO2 RAB02E06B51SNB06E39 P0000 FZRANO $
PAKF 210942Z AUTO 30016G21KT 9SM BKN012 BKN023 02/M01 A2932 RMK AO2 RAB02E06SNB06E39 P0000 FZRANO $
PAKF 210924Z AUTO 32005KT 3SM -SN BR CLR 01/M01 A2932 RMK AO2 RAB02E06SNB06 P0000 FZRANO $
PAKF 210916Z AUTO 29008G17KT 1 3/4SM -SN BR FEW018 02/M01 A2932 RMK AO2 VIS 3/4V4 RAB02E06SNB06 P0000 FZRANO $